createdAt,value
2019-05-05T00:00:54.959Z,61.55
2019-05-05T00:01:55.367Z,61.65
2019-05-05T00:03:55.035Z,61.65
2019-05-05T00:04:54.398Z,61.16
2019-05-05T00:05:54.714Z,61.25
2019-05-05T00:06:54.899Z,61.55
2019-05-05T00:07:54.164Z,61.35
2019-05-05T00:08:54.702Z,61.35
2019-05-05T00:09:55.109Z,61.35
2019-05-05T00:10:54.181Z,61.35
2019-05-05T00:11:54.693Z,61.16
2019-05-05T00:12:55.042Z,61.35
2019-05-05T00:13:55.158Z,61.45
2019-05-05T00:14:54.689Z,61.35
2019-05-05T00:15:55.077Z,61.25
2019-05-05T00:16:54.650Z,61.25
2019-05-05T00:17:55.010Z,61.25
2019-05-05T00:18:54.280Z,61.25
2019-05-05T00:19:54.970Z,61.35
2019-05-05T00:20:55.191Z,61.32
2019-05-05T00:21:55.118Z,61.16
2019-05-05T00:22:54.637Z,61.35
2019-05-05T00:23:55.347Z,61.16
2019-05-05T00:24:54.645Z,61.25
2019-05-05T00:25:55.300Z,61.45
2019-05-05T00:26:55.278Z,61.45
2019-05-05T00:27:54.611Z,61.45
2019-05-05T00:28:55.361Z,61.25
2019-05-05T00:29:54.727Z,61.16
2019-05-05T00:30:55.392Z,61.25
2019-05-05T00:31:54.669Z,61.22
2019-05-05T00:32:54.832Z,61.25
2019-05-05T00:33:54.515Z,61.25
2019-05-05T00:34:55.157Z,61.25
2019-05-05T00:35:54.614Z,61.35
2019-05-05T00:36:55.236Z,61.22
2019-05-05T00:37:54.491Z,61.32
2019-05-05T00:38:55.236Z,61.22
2019-05-05T00:39:54.401Z,61.22
2019-05-05T00:40:55.043Z,61.22
2019-05-05T00:41:55.492Z,61.22
2019-05-05T00:42:54.776Z,61.13
2019-05-05T00:44:54.926Z,61.22
2019-05-05T00:45:55.667Z,61.32
2019-05-05T00:46:55.005Z,61.42
2019-05-05T00:47:54.572Z,61.32
2019-05-05T00:48:55.034Z,61.61
2019-05-05T00:49:56.316Z,61.52
2019-05-05T00:50:55.651Z,61.32
2019-05-05T00:53:55.478Z,61.52
2019-05-05T00:54:55.601Z,61.71
2019-05-05T00:55:54.801Z,61.61
2019-05-05T00:56:54.967Z,61.61
2019-05-05T00:57:54.939Z,61.52
2019-05-05T00:58:55.342Z,61.22
2019-05-05T00:59:54.763Z,61.61
2019-05-05T01:00:54.926Z,61.42
2019-05-05T01:01:55.372Z,61.61
2019-05-05T01:02:54.853Z,61.71
2019-05-05T01:04:55.432Z,61.71
2019-05-05T01:05:55.368Z,61.80
2019-05-05T01:06:54.978Z,61.61
2019-05-05T01:07:55.005Z,61.71
2019-05-05T01:08:55.135Z,62.19
2019-05-05T01:09:55.126Z,62.09
2019-05-05T01:10:55.151Z,62.29
2019-05-05T01:11:55.492Z,62.29
2019-05-05T01:12:55.221Z,62.09
2019-05-05T01:13:55.346Z,62.09
2019-05-05T01:14:55.404Z,62.29
2019-05-05T01:15:55.311Z,62.29
2019-05-05T01:16:55.445Z,62.19
2019-05-05T01:17:55.445Z,61.90
2019-05-05T01:18:55.681Z,61.80
2019-05-05T01:20:03.191Z,62.09
2019-05-05T01:20:55.417Z,61.80
2019-05-05T01:21:55.448Z,61.90
2019-05-05T01:22:55.530Z,62.09
2019-05-05T01:23:55.572Z,61.90
2019-05-05T01:24:55.625Z,62.38
2019-05-05T01:25:55.923Z,62.00
2019-05-05T01:27:55.647Z,62.09
2019-05-05T01:28:56.323Z,62.19
2019-05-05T01:29:55.748Z,62.57
2019-05-05T01:30:55.826Z,62.19
2019-05-05T01:31:55.806Z,62.48
2019-05-05T01:32:56.137Z,62.29
2019-05-05T01:33:55.869Z,62.57
2019-05-05T01:34:55.856Z,62.48
2019-05-05T01:35:55.938Z,62.57
2019-05-05T01:36:55.915Z,62.19
2019-05-05T01:37:55.997Z,62.38
2019-05-05T01:38:55.980Z,62.38
2019-05-05T01:39:56.461Z,62.19
2019-05-05T01:40:56.045Z,62.38
2019-05-05T01:41:56.172Z,62.38
2019-05-05T01:42:56.149Z,62.48
2019-05-05T01:43:56.180Z,62.57
2019-05-05T01:44:56.173Z,62.57
2019-05-05T01:45:56.544Z,62.57
2019-05-05T01:46:56.589Z,62.57
2019-05-05T01:47:56.264Z,62.57
2019-05-05T01:48:56.347Z,62.38
2019-05-05T01:49:56.670Z,62.38
2019-05-05T01:50:56.410Z,62.38
2019-05-05T01:51:56.434Z,62.48
2019-05-05T01:52:56.465Z,62.38
2019-05-05T01:53:56.808Z,62.67
2019-05-05T01:54:56.647Z,62.67
2019-05-05T01:55:56.562Z,62.38
2019-05-05T01:56:56.591Z,62.38
2019-05-05T01:57:56.586Z,62.38
2019-05-05T01:58:56.673Z,62.38
2019-05-05T01:59:56.630Z,62.38
2019-05-05T02:00:57.018Z,62.29
2019-05-05T02:01:56.749Z,62.29
2019-05-05T02:02:56.732Z,62.29
2019-05-05T02:03:57.138Z,62.38
2019-05-05T02:05:56.872Z,62.19
2019-05-05T02:06:56.854Z,62.29
2019-05-05T02:07:57.232Z,62.38
2019-05-05T02:08:56.932Z,62.29
2019-05-05T02:09:56.951Z,62.29
2019-05-05T02:10:57.038Z,62.29
2019-05-05T02:11:57.160Z,62.29
2019-05-05T02:12:57.046Z,62.29
2019-05-05T02:13:57.123Z,62.29
2019-05-05T02:14:57.406Z,62.29
2019-05-05T02:15:57.182Z,62.19
2019-05-05T02:16:57.215Z,62.19
2019-05-05T02:17:57.242Z,62.19
2019-05-05T02:18:57.236Z,62.29
2019-05-05T02:19:57.305Z,62.19
2019-05-05T02:20:57.595Z,62.29
2019-05-05T02:22:57.407Z,62.38
2019-05-05T02:23:57.385Z,62.19
2019-05-05T02:24:57.422Z,62.19
2019-05-05T02:25:57.494Z,62.29
2019-05-05T02:26:57.826Z,62.29
2019-05-05T02:27:57.558Z,62.19
2019-05-05T02:28:57.545Z,62.38
2019-05-05T02:29:57.623Z,62.38
2019-05-05T02:30:57.648Z,62.38
2019-05-05T02:31:57.682Z,62.19
2019-05-05T02:32:58.014Z,62.38
2019-05-05T02:33:57.742Z,62.38
2019-05-05T02:34:57.783Z,62.57
2019-05-05T02:36:57.852Z,62.57
2019-05-05T02:37:57.822Z,62.67
2019-05-05T02:38:57.849Z,62.48
2019-05-05T02:40:03.425Z,62.57
2019-05-05T02:40:57.965Z,62.57
2019-05-05T02:41:57.995Z,62.57
2019-05-05T02:43:58.012Z,62.48
2019-05-05T02:44:58.090Z,62.67
2019-05-05T02:45:58.079Z,62.45
2019-05-05T02:46:58.452Z,62.38
2019-05-05T02:47:58.184Z,62.35
2019-05-05T02:48:58.162Z,62.48
2019-05-05T02:49:58.191Z,62.57
2019-05-05T02:51:02.444Z,62.35
2019-05-05T02:51:58.318Z,62.48
2019-05-05T02:52:58.334Z,62.57
2019-05-05T02:53:58.667Z,62.57
2019-05-05T02:54:58.396Z,62.54
2019-05-05T02:55:58.438Z,62.45
2019-05-05T02:56:58.469Z,62.54
2019-05-05T02:57:58.488Z,62.35
2019-05-05T02:59:58.556Z,62.45
2019-05-05T03:00:58.829Z,62.45
2019-05-05T03:02:58.652Z,62.45
2019-05-05T03:03:58.680Z,62.35
2019-05-05T03:04:58.667Z,62.26
2019-05-05T03:05:58.798Z,62.26
2019-05-05T03:06:58.866Z,62.93
2019-05-05T03:07:59.097Z,62.26
2019-05-05T03:08:58.837Z,62.35
2019-05-05T03:09:58.816Z,62.26
2019-05-05T03:10:58.894Z,62.26
2019-05-05T03:11:58.923Z,63.02
2019-05-05T03:12:59.059Z,62.74
2019-05-05T03:13:58.990Z,62.83
2019-05-05T03:14:59.319Z,62.83
2019-05-05T03:16:59.127Z,63.12
2019-05-05T03:31:28.073Z,62.64
2019-05-05T03:32:28.104Z,62.54
2019-05-05T03:33:28.237Z,62.74
2019-05-05T03:34:28.122Z,62.83
2019-05-05T03:35:28.146Z,62.74
2019-05-05T03:36:28.328Z,62.83
2019-05-05T03:37:28.658Z,62.74
2019-05-05T03:38:28.294Z,62.74
2019-05-05T03:39:28.330Z,62.74
2019-05-05T03:40:28.355Z,62.83
2019-05-05T03:41:28.343Z,62.74
2019-05-05T03:42:28.416Z,62.83
2019-05-05T03:43:28.601Z,62.74
2019-05-05T03:44:28.779Z,62.83
2019-05-05T03:45:28.504Z,62.83
2019-05-05T03:46:28.539Z,62.74
2019-05-05T03:47:28.522Z,62.74
2019-05-05T03:48:28.549Z,62.54
2019-05-05T03:49:28.632Z,62.74
2019-05-05T03:50:28.659Z,62.93
2019-05-05T03:51:28.940Z,62.74
2019-05-05T03:52:28.721Z,62.83
2019-05-05T03:53:28.779Z,62.93
2019-05-05T03:54:28.801Z,63.22
2019-05-05T03:56:28.799Z,62.64
2019-05-05T03:57:28.875Z,63.22
2019-05-05T03:58:28.859Z,63.12
2019-05-05T03:59:28.939Z,63.31
2019-05-05T04:01:29.002Z,63.02
2019-05-05T04:02:29.132Z,63.12
2019-05-05T04:03:29.013Z,63.02
2019-05-05T04:04:29.344Z,63.31
2019-05-05T04:05:29.124Z,63.22
2019-05-05T04:06:29.256Z,63.22
2019-05-05T04:07:29.137Z,62.83
2019-05-05T04:08:29.167Z,63.12
2019-05-05T04:09:29.198Z,63.22
2019-05-05T04:10:29.280Z,63.12
2019-05-05T04:11:29.569Z,62.93
2019-05-05T04:12:29.642Z,62.83
2019-05-05T04:13:29.326Z,62.83
2019-05-05T04:14:29.406Z,62.83
2019-05-05T04:15:29.441Z,63.22
2019-05-05T04:16:29.459Z,62.93
2019-05-05T04:17:29.441Z,62.74
2019-05-05T04:18:30.130Z,63.22
2019-05-05T04:19:29.502Z,62.83
2019-05-05T04:21:33.728Z,63.02
2019-05-05T04:22:29.603Z,63.12
2019-05-05T04:23:29.686Z,62.93
2019-05-05T04:24:29.657Z,62.93
2019-05-05T04:25:29.991Z,62.93
2019-05-05T04:26:29.773Z,63.02
2019-05-05T04:27:29.804Z,62.83
2019-05-05T04:28:29.780Z,62.74
2019-05-05T04:29:29.815Z,63.02
2019-05-05T04:30:29.850Z,62.93
2019-05-05T04:31:30.242Z,62.74
2019-05-05T04:32:30.290Z,63.02
2019-05-05T04:33:30.091Z,63.12
2019-05-05T04:34:29.977Z,63.02
2019-05-05T04:35:30.010Z,62.93
2019-05-05T04:36:30.083Z,63.02
2019-05-05T04:37:30.063Z,63.02
2019-05-05T04:38:30.142Z,63.02
2019-05-05T04:39:30.580Z,63.12
2019-05-05T04:40:30.155Z,63.12
2019-05-05T04:41:30.241Z,63.12
2019-05-05T04:42:30.270Z,62.93
2019-05-05T04:43:30.247Z,63.22
2019-05-05T04:44:30.283Z,63.02
2019-05-05T04:45:30.309Z,63.12
2019-05-05T04:46:30.691Z,63.12
2019-05-05T04:47:30.384Z,63.22
2019-05-05T04:48:30.537Z,63.12
2019-05-05T04:49:30.513Z,63.12
2019-05-05T04:50:30.521Z,62.93
2019-05-05T04:51:43.537Z,63.02
2019-05-05T04:52:30.531Z,63.22
2019-05-05T04:54:30.636Z,63.02
2019-05-05T04:55:30.768Z,63.02
2019-05-05T04:56:30.647Z,63.02
2019-05-05T04:57:30.690Z,62.93
2019-05-05T04:58:31.168Z,63.02
2019-05-05T05:00:30.769Z,63.12
2019-05-05T05:01:30.895Z,62.74
2019-05-05T05:02:30.895Z,63.12
2019-05-05T05:03:30.914Z,63.12
2019-05-05T05:04:31.199Z,62.74
2019-05-05T05:05:30.927Z,63.22
2019-05-05T05:06:30.967Z,63.31
2019-05-05T05:07:31.045Z,63.22
2019-05-05T05:08:31.076Z,62.93
2019-05-05T05:09:31.054Z,63.02
2019-05-05T05:10:31.229Z,62.93
2019-05-05T05:11:31.420Z,63.12
2019-05-05T05:12:31.199Z,62.74
2019-05-05T05:13:31.329Z,62.93
2019-05-05T05:14:33.561Z,63.22
2019-05-05T05:15:31.237Z,62.83
2019-05-05T05:16:31.324Z,62.74
2019-05-05T05:17:31.354Z,62.93
2019-05-05T05:18:31.682Z,62.93
2019-05-05T05:19:33.396Z,62.74
2019-05-05T05:20:31.401Z,63.02
2019-05-05T05:21:31.424Z,63.12
2019-05-05T05:22:33.345Z,63.22
2019-05-05T05:23:31.491Z,62.74
2019-05-05T05:24:31.578Z,62.83
2019-05-05T05:25:31.861Z,63.31
2019-05-05T05:26:33.487Z,62.83
2019-05-05T05:28:31.641Z,63.41
2019-05-05T05:29:31.720Z,63.02
2019-05-05T05:30:31.703Z,62.93
2019-05-05T05:31:33.630Z,63.02
2019-05-05T05:33:31.851Z,63.31
2019-05-05T05:34:31.880Z,63.12
2019-05-05T05:35:33.607Z,62.93
2019-05-05T05:36:33.827Z,63.02
2019-05-05T05:37:34.148Z,63.31
2019-05-05T05:38:31.949Z,63.41
2019-05-05T05:39:33.601Z,63.12
2019-05-05T05:40:34.080Z,63.41
2019-05-05T05:42:33.612Z,63.22
2019-05-05T05:43:33.488Z,63.22
2019-05-05T05:44:33.848Z,63.12
2019-05-05T05:45:34.124Z,63.02
2019-05-05T05:46:33.435Z,62.93
2019-05-05T05:47:33.833Z,63.31
2019-05-05T05:48:34.222Z,63.22
2019-05-05T05:49:34.499Z,62.74
2019-05-05T05:50:33.916Z,62.83
2019-05-05T05:51:34.105Z,62.74
2019-05-05T05:52:34.337Z,62.83
2019-05-05T05:53:34.741Z,62.74
2019-05-05T05:54:34.047Z,62.74
2019-05-05T05:55:34.322Z,62.64
2019-05-05T05:56:34.323Z,62.64
2019-05-05T05:57:34.564Z,62.74
2019-05-05T05:58:33.780Z,62.35
2019-05-05T05:59:33.964Z,62.74
2019-05-05T06:00:34.319Z,62.35
2019-05-05T06:01:34.596Z,62.26
2019-05-05T06:02:33.469Z,62.35
2019-05-05T06:03:33.924Z,62.35
2019-05-05T06:04:34.046Z,62.93
2019-05-05T06:05:34.335Z,63.02
2019-05-05T06:06:34.648Z,62.74
2019-05-05T06:07:33.613Z,62.35
2019-05-05T06:08:34.703Z,63.02
2019-05-05T06:09:34.416Z,62.16
2019-05-05T06:10:33.919Z,62.83
2019-05-05T06:11:34.429Z,62.38
2019-05-05T06:12:33.632Z,62.48
2019-05-05T06:14:34.082Z,62.54
2019-05-05T06:15:33.889Z,62.35
2019-05-05T06:16:34.135Z,62.54
2019-05-05T06:17:34.364Z,62.38
2019-05-05T06:18:34.574Z,62.38
2019-05-05T06:19:33.814Z,62.19
2019-05-05T06:20:34.362Z,62.38
2019-05-05T06:21:33.885Z,62.38
2019-05-05T06:22:34.422Z,62.19
2019-05-05T06:23:34.398Z,62.19
2019-05-05T06:24:34.601Z,62.19
2019-05-05T06:25:34.254Z,62.19
2019-05-05T06:26:34.362Z,62.29
2019-05-05T06:27:34.181Z,62.19
2019-05-05T06:28:34.218Z,62.38
2019-05-05T06:30:33.863Z,62.57
2019-05-05T06:31:34.242Z,62.48
2019-05-05T06:32:34.250Z,62.57
2019-05-05T06:33:34.771Z,62.29
2019-05-05T06:34:34.007Z,62.38
2019-05-05T06:35:33.961Z,62.48
2019-05-05T06:36:34.128Z,62.38
2019-05-05T06:37:34.302Z,62.19
2019-05-05T06:38:34.618Z,62.09
2019-05-05T06:39:33.891Z,62.38
2019-05-05T06:40:34.202Z,62.57
2019-05-05T06:41:34.293Z,62.57
2019-05-05T06:42:34.363Z,62.29
2019-05-05T06:43:34.779Z,62.57
2019-05-05T06:44:34.044Z,62.38
2019-05-05T06:45:34.361Z,62.29
2019-05-05T06:46:34.387Z,62.38
2019-05-05T06:47:34.397Z,62.38
2019-05-05T06:49:34.654Z,62.09
2019-05-05T06:50:34.536Z,62.48
2019-05-05T06:51:34.372Z,62.48
2019-05-05T06:52:43.839Z,62.29
2019-05-05T06:53:34.357Z,62.29
2019-05-05T06:54:34.937Z,61.80
2019-05-05T06:56:34.375Z,62.09
2019-05-05T06:57:34.456Z,62.09
2019-05-05T06:59:35.077Z,62.29
2019-05-05T07:01:34.882Z,62.09
2019-05-05T07:02:34.571Z,62.09
2019-05-05T07:03:34.644Z,62.09
2019-05-05T07:04:34.627Z,62.09
2019-05-05T07:05:34.727Z,62.09
2019-05-05T07:06:34.784Z,62.19
2019-05-05T07:07:35.120Z,62.19
2019-05-05T07:08:34.894Z,62.09
2019-05-05T07:09:34.881Z,62.00
2019-05-05T07:10:34.810Z,62.29
2019-05-05T07:11:34.892Z,62.09
2019-05-05T07:12:34.874Z,62.19
2019-05-05T07:13:34.963Z,62.09
2019-05-05T07:14:35.243Z,61.61
2019-05-05T07:16:35.015Z,61.32
2019-05-05T07:18:35.116Z,61.61
2019-05-05T07:19:35.197Z,61.52
2019-05-05T07:20:35.189Z,61.61
2019-05-05T07:21:35.456Z,61.71
2019-05-05T07:22:35.236Z,61.65
2019-05-05T07:23:35.271Z,61.42
2019-05-05T07:24:35.401Z,61.65
2019-05-05T07:26:35.372Z,61.55
2019-05-05T07:27:35.344Z,61.55
2019-05-05T07:29:35.757Z,61.52
2019-05-05T07:30:35.488Z,61.55
2019-05-05T07:31:35.472Z,61.55
2019-05-05T07:32:35.551Z,61.65
2019-05-05T07:34:35.573Z,61.55
2019-05-05T07:35:35.650Z,61.65
2019-05-05T07:36:35.991Z,61.55
2019-05-05T07:38:35.746Z,61.55
2019-05-05T07:39:35.723Z,61.55
2019-05-05T07:40:35.808Z,61.45
2019-05-05T07:42:35.882Z,61.83
2019-05-05T07:43:36.207Z,61.65
2019-05-05T07:44:35.932Z,61.35
2019-05-05T07:45:35.966Z,61.45
2019-05-05T07:47:36.306Z,61.83
2019-05-05T07:48:36.064Z,61.55
2019-05-05T07:49:36.148Z,61.65
2019-05-05T07:50:36.561Z,61.74
2019-05-05T07:53:36.315Z,61.35
2019-05-05T07:54:36.541Z,61.35
2019-05-05T07:55:36.278Z,61.45
2019-05-05T07:56:36.383Z,61.35
2019-05-05T07:57:36.769Z,61.35
2019-05-05T07:58:36.868Z,61.45
2019-05-05T07:59:36.577Z,61.65
2019-05-05T08:00:36.412Z,61.25
2019-05-05T08:03:36.594Z,61.16
2019-05-05T08:04:37.163Z,61.45
2019-05-05T08:06:36.730Z,61.07
2019-05-05T08:07:36.665Z,60.97
2019-05-05T08:08:36.854Z,61.16
2019-05-05T08:09:36.851Z,61.35
2019-05-05T08:10:36.865Z,60.49
2019-05-05T08:11:37.113Z,60.87
2019-05-05T08:12:37.128Z,60.68
2019-05-05T08:13:36.891Z,60.97
2019-05-05T08:14:36.901Z,60.77
2019-05-05T08:15:36.921Z,60.58
2019-05-05T08:17:38.980Z,60.68
2019-05-05T08:18:37.352Z,60.77
2019-05-05T08:19:37.091Z,60.58
2019-05-05T08:21:37.115Z,60.77
2019-05-05T08:22:37.159Z,60.80
2019-05-05T08:23:37.290Z,60.80
2019-05-05T08:24:37.402Z,60.52
2019-05-05T08:25:40.348Z,60.13
2019-05-05T08:27:37.308Z,60.32
2019-05-05T08:28:37.337Z,60.23
2019-05-05T08:30:37.528Z,60.42
2019-05-05T08:32:37.470Z,60.13
2019-05-05T08:33:37.565Z,60.42
2019-05-05T08:35:38.022Z,60.52
2019-05-05T08:36:39.420Z,60.13
2019-05-05T08:37:37.720Z,60.32
2019-05-05T08:38:37.691Z,60.23
2019-05-05T08:39:37.991Z,60.42
2019-05-05T08:40:37.733Z,60.03
2019-05-05T08:41:38.060Z,60.23
2019-05-05T08:42:37.780Z,60.32
2019-05-05T08:43:37.817Z,60.42
2019-05-05T08:44:37.844Z,60.32
2019-05-05T08:45:37.900Z,60.13
2019-05-05T08:46:38.257Z,60.42
2019-05-05T08:47:37.986Z,60.23
2019-05-05T08:48:38.106Z,60.13
2019-05-05T08:49:37.974Z,60.32
2019-05-05T08:50:37.999Z,59.84
2019-05-05T08:51:38.017Z,59.75
2019-05-05T08:52:38.402Z,60.23
2019-05-05T08:53:44.968Z,60.23
2019-05-05T08:54:38.152Z,60.52
2019-05-05T08:55:38.253Z,60.23
2019-05-05T08:57:38.385Z,59.97
2019-05-05T08:59:38.688Z,60.03
2019-05-05T09:00:38.342Z,60.06
2019-05-05T09:01:38.479Z,59.78
2019-05-05T09:03:38.469Z,60.03
2019-05-05T09:05:38.538Z,59.87
2019-05-05T09:06:38.849Z,59.87
2019-05-05T09:07:44.987Z,59.78
2019-05-05T09:08:38.809Z,59.87
2019-05-05T09:09:38.724Z,60.06
2019-05-05T09:10:38.708Z,59.97
2019-05-05T09:11:38.763Z,59.87
2019-05-05T09:12:39.046Z,59.48
2019-05-05T09:13:39.048Z,59.30
2019-05-05T09:14:39.024Z,59.39
2019-05-05T09:15:38.827Z,59.78
2019-05-05T09:16:39.473Z,59.87
2019-05-05T09:17:39.066Z,59.39
2019-05-05T09:18:40.312Z,59.39
2019-05-05T09:19:38.983Z,59.87
2019-05-05T09:20:39.011Z,59.48
2019-05-05T09:21:38.991Z,59.48
2019-05-05T09:22:39.054Z,59.39
2019-05-05T09:23:39.119Z,59.58
2019-05-05T09:24:39.153Z,59.58
2019-05-05T09:25:39.753Z,59.39
2019-05-05T09:26:39.150Z,59.30
2019-05-05T09:27:39.268Z,58.62
2019-05-05T09:28:39.395Z,58.72
2019-05-05T09:29:39.346Z,58.33
2019-05-05T09:30:39.354Z,58.62
2019-05-05T09:31:39.405Z,58.81
2019-05-05T09:32:39.677Z,58.62
2019-05-05T09:33:39.524Z,58.52
2019-05-05T09:34:39.414Z,58.14
2019-05-05T09:35:39.503Z,58.52
2019-05-05T09:37:39.566Z,57.46
2019-05-05T09:38:39.677Z,57.59
2019-05-05T09:39:40.095Z,57.68
2019-05-05T09:40:39.604Z,57.87
2019-05-05T09:41:39.728Z,57.78
2019-05-05T09:42:39.890Z,57.68
2019-05-05T09:43:39.812Z,57.78
2019-05-05T09:44:39.886Z,57.68
2019-05-05T09:45:39.772Z,57.68
2019-05-05T09:46:40.175Z,57.68
2019-05-05T09:47:40.240Z,57.87
2019-05-05T09:49:40.037Z,57.10
2019-05-05T09:50:39.994Z,57.49
2019-05-05T09:52:40.166Z,57.01
2019-05-05T09:53:40.108Z,56.81
2019-05-05T09:54:40.165Z,56.81
2019-05-05T09:55:40.197Z,56.91
2019-05-05T09:56:40.245Z,56.72
2019-05-05T09:57:40.248Z,57.10
2019-05-05T10:00:40.413Z,57.20
2019-05-05T10:02:40.732Z,57.27
2019-05-05T10:03:40.471Z,57.27
2019-05-05T10:04:40.451Z,57.07
2019-05-05T10:06:40.465Z,57.46
2019-05-05T10:07:40.538Z,57.17
2019-05-05T10:10:40.976Z,56.69
2019-05-05T10:11:40.622Z,56.98
2019-05-05T10:12:40.699Z,56.79
2019-05-05T10:15:40.824Z,56.81
2019-05-05T10:16:41.347Z,57.01
2019-05-05T10:17:40.910Z,57.46
2019-05-05T10:19:41.038Z,56.62
2019-05-05T10:22:41.047Z,56.69
2019-05-05T10:23:43.509Z,56.98
2019-05-05T10:25:41.125Z,57.17
2019-05-05T10:26:41.172Z,57.37
2019-05-05T10:27:44.843Z,57.56
2019-05-05T10:28:41.171Z,57.75
2019-05-05T10:29:41.316Z,57.94
2019-05-05T10:31:43.549Z,57.65
2019-05-05T10:32:41.363Z,57.87
2019-05-05T10:34:43.814Z,57.87
2019-05-05T10:35:43.210Z,57.68
2019-05-05T10:36:41.867Z,58.26
2019-05-05T10:37:43.364Z,57.29
2019-05-05T10:41:41.687Z,57.49
2019-05-05T10:42:41.751Z,57.87
2019-05-05T10:43:43.617Z,58.36
2019-05-05T10:44:41.833Z,57.87
2019-05-05T10:45:43.900Z,57.59
2019-05-05T10:46:42.031Z,57.68
2019-05-05T10:47:43.963Z,57.78
2019-05-05T10:48:41.895Z,57.68
2019-05-05T10:49:44.161Z,57.78
2019-05-05T10:51:43.875Z,57.78
2019-05-05T10:52:44.162Z,57.59
2019-05-05T10:53:43.812Z,57.49
2019-05-05T10:54:44.773Z,57.78
2019-05-05T10:55:44.738Z,57.49
2019-05-05T10:57:43.580Z,57.29
2019-05-05T10:58:44.115Z,57.10
2019-05-05T11:00:44.535Z,57.20
2019-05-05T11:02:42.596Z,57.29
2019-05-05T11:03:44.647Z,57.20
2019-05-05T11:04:44.165Z,58.07
2019-05-05T11:05:44.542Z,57.29
2019-05-05T11:06:44.088Z,57.10
2019-05-05T11:07:42.530Z,57.20
2019-05-05T11:08:44.990Z,57.20
2019-05-05T11:09:44.402Z,56.91
2019-05-05T11:10:44.801Z,57.01
2019-05-05T11:11:43.875Z,57.20
2019-05-05T11:12:44.384Z,57.39
2019-05-05T11:15:44.283Z,57.10
2019-05-05T11:17:43.920Z,56.81
2019-05-05T11:18:42.948Z,57.14
2019-05-05T11:20:44.638Z,57.01
2019-05-05T11:21:43.608Z,57.20
2019-05-05T11:22:43.879Z,56.91
2019-05-05T11:23:44.795Z,57.23
2019-05-05T11:24:56.732Z,57.39
2019-05-05T11:25:44.265Z,57.10
2019-05-05T11:26:44.588Z,57.01
2019-05-05T11:27:43.990Z,57.01
2019-05-05T11:28:44.557Z,56.62
2019-05-05T11:29:43.745Z,57.01
2019-05-05T11:31:43.411Z,56.72
2019-05-05T11:32:44.087Z,56.91
2019-05-05T11:33:43.790Z,56.91
2019-05-05T11:34:44.239Z,57.20
2019-05-05T11:35:44.439Z,56.81
2019-05-05T11:36:43.903Z,57.20
2019-05-05T11:37:43.870Z,57.29
2019-05-05T11:38:44.582Z,56.91
2019-05-05T11:39:44.572Z,57.29
2019-05-05T11:40:44.003Z,57.29
2019-05-05T11:41:44.119Z,57.39
2019-05-05T11:42:43.671Z,57.20
2019-05-05T11:43:44.066Z,56.33
2019-05-05T11:45:44.026Z,56.72
2019-05-05T11:46:44.346Z,56.81
2019-05-05T11:47:44.384Z,57.10
2019-05-05T11:48:44.093Z,57.29
2019-05-05T11:49:44.228Z,57.20
2019-05-05T11:50:43.881Z,57.20
2019-05-05T11:51:44.118Z,57.10
2019-05-05T11:52:44.473Z,56.72
2019-05-05T11:53:54.077Z,56.62
2019-05-05T11:54:44.068Z,56.62
2019-05-05T11:55:44.429Z,57.10
2019-05-05T11:56:45.477Z,56.62
2019-05-05T11:57:44.163Z,56.81
2019-05-05T11:58:44.409Z,56.94
2019-05-05T11:59:44.362Z,56.74
2019-05-05T12:00:44.265Z,55.88
2019-05-05T12:02:44.323Z,56.36
2019-05-05T12:03:44.626Z,56.16
2019-05-05T12:04:44.775Z,56.65
2019-05-05T12:05:44.445Z,56.65
2019-05-05T12:06:44.479Z,55.88
2019-05-05T12:07:44.724Z,55.98
2019-05-05T12:09:44.578Z,56.26
2019-05-05T12:10:46.044Z,55.88
2019-05-05T12:11:44.981Z,56.26
2019-05-05T12:12:44.996Z,55.88
2019-05-05T12:14:44.772Z,55.59
2019-05-05T12:15:44.751Z,55.88
2019-05-05T12:16:44.892Z,55.68
2019-05-05T12:18:45.057Z,56.36
2019-05-05T12:19:44.831Z,56.36
2019-05-05T12:20:44.919Z,55.68
2019-05-05T12:21:45.152Z,55.98
2019-05-05T12:22:45.033Z,55.78
2019-05-05T12:23:45.324Z,55.88
2019-05-05T12:24:45.042Z,55.78
2019-05-05T12:25:45.102Z,55.10
2019-05-05T12:27:45.471Z,54.24
2019-05-05T12:28:45.314Z,54.53
2019-05-05T12:29:45.575Z,54.72
2019-05-05T12:30:45.247Z,54.05
2019-05-05T12:32:45.466Z,53.66
2019-05-05T12:33:45.479Z,52.89
2019-05-05T12:34:45.391Z,53.08
2019-05-05T12:35:45.875Z,53.08
2019-05-05T12:36:45.483Z,52.79
2019-05-05T12:38:45.692Z,53.66
2019-05-05T12:39:45.687Z,53.66
2019-05-05T12:40:45.540Z,53.85
2019-05-05T12:41:45.789Z,54.62
2019-05-05T12:42:46.511Z,54.33
2019-05-05T12:44:45.770Z,54.24
2019-05-05T12:48:45.921Z,54.53
2019-05-05T12:49:47.275Z,54.62
2019-05-05T12:50:45.976Z,54.62
2019-05-05T12:51:45.948Z,54.43
2019-05-05T12:53:46.013Z,54.91
2019-05-05T12:54:46.049Z,54.82
2019-05-05T12:55:46.120Z,55.20
2019-05-05T12:56:46.413Z,55.20
2019-05-05T12:57:46.101Z,55.40
2019-05-05T12:58:46.326Z,55.30
2019-05-05T12:59:46.214Z,55.20
2019-05-05T13:00:46.304Z,54.91
2019-05-05T13:01:46.246Z,54.82
2019-05-05T13:02:46.363Z,54.62
2019-05-05T13:03:47.140Z,54.72
2019-05-05T13:04:46.369Z,54.53
2019-05-05T13:05:46.432Z,54.72
2019-05-05T13:06:46.473Z,54.36
2019-05-05T13:07:46.487Z,54.24
2019-05-05T13:08:46.526Z,54.24
2019-05-05T13:09:46.582Z,54.24
2019-05-05T13:10:46.874Z,54.24
2019-05-05T13:12:46.640Z,54.36
2019-05-05T13:13:46.702Z,54.27
2019-05-05T13:14:46.720Z,54.36
2019-05-05T13:16:52.395Z,54.46
2019-05-05T13:18:47.154Z,54.46
2019-05-05T13:19:46.836Z,54.65
2019-05-05T13:20:46.926Z,54.65
2019-05-05T13:22:47.039Z,54.17
2019-05-05T13:23:46.988Z,54.07
2019-05-05T13:24:47.018Z,53.71
2019-05-05T13:25:56.152Z,53.91
2019-05-05T13:26:47.203Z,53.42
2019-05-05T13:27:47.270Z,53.03
2019-05-05T13:28:47.218Z,53.25
2019-05-05T13:29:47.191Z,52.58
2019-05-05T13:30:47.282Z,52.77
2019-05-05T13:31:47.447Z,52.48
2019-05-05T13:32:47.669Z,52.39
2019-05-05T13:33:47.413Z,52.51
2019-05-05T13:34:47.571Z,52.31
2019-05-05T13:36:47.477Z,52.22
2019-05-05T13:38:47.579Z,52.41
2019-05-05T13:39:47.614Z,52.51
2019-05-05T13:42:47.713Z,52.31
2019-05-05T13:44:47.712Z,52.22
2019-05-05T13:45:48.127Z,52.41
2019-05-05T13:47:47.815Z,52.70
2019-05-05T13:50:48.017Z,52.29
2019-05-05T13:51:47.965Z,52.51
2019-05-05T13:52:48.968Z,52.70
2019-05-05T13:53:48.119Z,52.02
2019-05-05T13:54:48.072Z,51.93
2019-05-05T13:55:48.254Z,52.31
2019-05-05T13:56:48.490Z,51.83
2019-05-05T13:57:48.220Z,52.24
2019-05-05T13:59:49.421Z,52.22
2019-05-05T14:00:48.430Z,51.83
2019-05-05T14:01:48.790Z,51.64
2019-05-05T14:02:48.611Z,51.73
2019-05-05T14:03:49.436Z,51.64
2019-05-05T14:04:48.512Z,51.73
2019-05-05T14:05:48.719Z,51.64
2019-05-05T14:06:49.852Z,51.35
2019-05-05T14:07:48.691Z,51.73
2019-05-05T14:08:48.571Z,51.83
2019-05-05T14:10:48.704Z,51.73
2019-05-05T14:11:48.992Z,51.73
2019-05-05T14:12:48.788Z,52.31
2019-05-05T14:13:48.816Z,52.12
2019-05-05T14:14:48.864Z,52.39
2019-05-05T14:15:48.878Z,52.41
2019-05-05T14:17:49.072Z,52.67
2019-05-05T14:18:49.283Z,52.70
2019-05-05T14:20:01.240Z,52.51
2019-05-05T14:20:49.025Z,52.31
2019-05-05T14:21:49.208Z,52.58
2019-05-05T14:22:51.257Z,52.39
2019-05-05T14:23:49.201Z,52.29
2019-05-05T14:24:49.506Z,52.77
2019-05-05T14:25:49.302Z,52.48
2019-05-05T14:26:49.399Z,52.48
2019-05-05T14:27:49.340Z,52.19
2019-05-05T14:28:49.378Z,52.39
2019-05-05T14:29:49.370Z,52.39
2019-05-05T14:30:49.410Z,52.19
2019-05-05T14:31:52.131Z,52.09
2019-05-05T14:32:49.479Z,52.39
2019-05-05T14:33:49.514Z,52.48
2019-05-05T14:34:49.550Z,52.58
2019-05-05T14:35:49.546Z,52.58
2019-05-05T14:36:49.677Z,52.48
2019-05-05T14:38:49.761Z,52.51
2019-05-05T14:39:49.793Z,52.31
2019-05-05T14:40:49.777Z,52.31
2019-05-05T14:41:49.746Z,52.12
2019-05-05T14:42:50.097Z,51.54
2019-05-05T14:43:49.998Z,51.64
2019-05-05T14:44:50.199Z,51.28
2019-05-05T14:45:49.931Z,51.37
2019-05-05T14:48:50.182Z,50.79
2019-05-05T14:50:50.125Z,51.08
2019-05-05T14:54:50.579Z,50.98
2019-05-05T14:55:50.312Z,50.70
2019-05-05T14:57:50.382Z,50.52
2019-05-05T14:58:50.378Z,50.50
2019-05-05T14:59:50.485Z,50.72
2019-05-05T15:00:50.710Z,50.82
2019-05-05T15:01:50.541Z,50.89